This is the latest recevied weather packets stored in our database for station/object TAPIOLA. If no packets are shown the sender has not sent any weather packets the latest 10 day(s).
| Time | Temp. | Humidity | Pressure | Rain* | Wind** | Luminosity | Snow |
|---|---|---|---|---|---|---|---|
| 1778107642 | 1.67° C | 77% | 1015 hPa | 0 mm | - | - | - |
| 1778106443 | 1.67° C | 88% | 1014.9 hPa | 0 mm | - | - | - |
| 1778105243 | 2.22° C | 89% | 1014.8 hPa | 0 mm | - | - | - |
| 1778104043 | 2.22° C | 89% | 1014.7 hPa | 0 mm | - | - | - |
| 1778101642 | 2.78° C | 85% | 1014.5 hPa | 0 mm | - | - | - |
| 1778100442 | 3.33° C | 83% | 1014.4 hPa | 0 mm | - | - | - |
| 1778099242 | 3.89° C | 81% | 1014.4 hPa | 0 mm | - | - | - |
| 1778098042 | 4.44° C | 76% | 1014.4 hPa | 0 mm | - | - | - |
| 1778096842 | 5° C | 77% | 1014.3 hPa | 0 mm | - | - | - |
| 1778095641 | 5.56° C | 72% | 1014.2 hPa | 0 mm | - | - | - |
| 1778094442 | 6.11° C | 70% | 1014.2 hPa | 0 mm | - | - | - |
| 1778093242 | 6.67° C | 65% | 1014.1 hPa | 0 mm | - | - | - |
| 1778089851 | 9.44° C | 42% | 1014 hPa | 0 mm | - | - | - |
| 1778087241 | 9.44° C | 43% | 1013.8 hPa | 0 mm | - | - | - |
| 1778086040 | 9.44° C | 42% | 1013.8 hPa | 0 mm | - | - | - |
| 1778084841 | 9.44° C | 42% | 1013.7 hPa | 0 mm | - | - | - |
| 1778083641 | 10° C | 40% | 1013.8 hPa | 0 mm | - | - | - |
| 1778082442 | 10° C | 42% | 1013.8 hPa | 0 mm | - | - | - |
| 1778081242 | 10° C | 42% | 1013.8 hPa | 0 mm | - | - | - |
| 1778080041 | 10° C | 42% | 1013.8 hPa | 0 mm | - | - | - |
| 1778079048 | 10° C | 41% | 1013.9 hPa | 0 mm | - | - | - |
| 1778077640 | 10.56° C | 39% | 1014 hPa | 0 mm | - | - | - |
| 1778076440 | 11.11° C | 36% | 1013.9 hPa | 0 mm | - | - | - |
| 1778075240 | 11.11° C | 38% | 1013.9 hPa | 0 mm | - | - | - |
| 1778074040 | 10.56° C | 38% | 1013.9 hPa | 0 mm | - | - | - |
* Rain latest hour (hover to see other rain measurements)
** Current wind speed in m/s (hover to see current wind gust speed)